Time;durP1;ratioP1;P1;durP2;ratioP2;P2;SDS_P1;SDS_P2;PMS_P1;PMS_P2;Temp;Humidity;BMP_temperature;BMP_pressure;BME280_temperature;BME280_humidity;BME280_pressure;Samples;Min_cycle;Max_cycle;Signal;HPM_P1;HPM_P2
2023/10/30 00:00:32;;;;;;;6.53;1.50;;;11.70;85.60;;;;;;9162986;19;20019;-73
2023/10/30 00:03:39;;;;;;;6.82;1.45;;;11.60;85.60;;;;;;9164813;19;20010;-73
2023/10/30 00:06:45;;;;;;;6.13;1.40;;;11.60;85.60;;;;;;9164801;19;20526;-72
2023/10/30 00:09:58;;;;;;;8.65;1.65;;;11.70;85.80;;;;;;9159572;19;20120;-71
2023/10/30 00:13:03;;;;;;;5.18;1.52;;;11.60;85.60;;;;;;9161905;19;20025;-73
2023/10/30 00:16:11;;;;;;;2.70;1.38;;;11.60;85.60;;;;;;9161437;19;20074;-71
2023/10/30 00:19:17;;;;;;;11.32;2.35;;;11.60;85.60;;;;;;9161559;19;20110;-71
2023/10/30 00:22:24;;;;;;;11.63;1.67;;;11.60;85.70;;;;;;9162681;19;20484;-72
2023/10/30 00:25:32;;;;;;;9.90;1.65;;;11.60;85.60;;;;;;9162246;19;20033;-73
2023/10/30 00:28:40;;;;;;;9.40;1.67;;;11.60;85.70;;;;;;9157002;19;20359;-71
2023/10/30 00:31:45;;;;;;;9.07;1.88;;;11.60;86.30;;;;;;9156902;19;20018;-73
2023/10/30 00:34:53;;;;;;;11.30;1.83;;;11.70;91.70;;;;;;9162257;19;20019;-71
2023/10/30 00:37:58;;;;;;;10.07;1.45;;;11.60;85.70;;;;;;9161349;19;20495;-71
2023/10/30 00:41:10;;;;;;;11.00;1.67;;;11.60;85.80;;;;;;9159928;19;20018;-71
2023/10/30 00:44:16;;;;;;;8.95;1.05;;;11.60;85.80;;;;;;9162491;19;20479;-71
2023/10/30 00:47:26;;;;;;;7.43;1.10;;;11.60;85.80;;;;;;9159597;19;20372;-72
2023/10/30 00:50:32;;;;;;;9.68;1.70;;;11.60;85.80;;;;;;9158617;19;20378;-72
2023/10/30 00:53:40;;;;;;;12.57;1.85;;;11.60;85.80;;;;;;9159315;19;20415;-72
2023/10/30 00:56:48;;;;;;;6.43;1.50;;;11.60;85.90;;;;;;9156969;19;20018;-72
2023/10/30 00:59:55;;;;;;;12.90;1.70;;;11.60;86.00;;;;;;9158427;19;20474;-72
2023/10/30 01:03:01;;;;;;;8.55;1.63;;;11.60;86.00;;;;;;9159667;19;20086;-72
2023/10/30 01:06:09;;;;;;;13.88;1.85;;;11.70;87.00;;;;;;9158596;19;20021;-72
2023/10/30 01:09:14;;;;;;;9.23;1.73;;;11.70;87.40;;;;;;9161522;19;20052;-72
2023/10/30 01:12:26;;;;;;;11.88;2.03;;;11.70;87.20;;;;;;9158594;19;20082;-75
2023/10/30 01:15:32;;;;;;;7.07;1.38;;;11.70;87.30;;;;;;9161136;19;20022;-71
2023/10/30 01:18:40;;;;;;;11.57;2.42;;;11.70;86.70;;;;;;9157713;19;20022;-73
2023/10/30 01:21:46;;;;;;;16.45;2.35;;;11.70;86.70;;;;;;9160649;19;20738;-71
2023/10/30 01:24:54;;;;;;;10.95;2.05;;;11.70;86.20;;;;;;9158149;19;20018;-73
2023/10/30 01:28:02;;;;;;;10.80;2.28;;;11.70;86.20;;;;;;9160617;19;20364;-72
2023/10/30 01:31:09;;;;;;;10.30;1.85;;;11.70;86.20;;;;;;9153123;19;20017;-72
2023/10/30 01:34:15;;;;;;;13.32;3.10;;;11.70;86.80;;;;;;9157434;19;20018;-71
2023/10/30 01:37:25;;;;;;;10.50;2.38;;;11.70;86.20;;;;;;9159800;19;20066;-72
2023/10/30 01:40:31;;;;;;;14.65;2.10;;;11.70;86.40;;;;;;9159178;19;20029;-71
2023/10/30 01:43:41;;;;;;;8.88;2.25;;;11.70;86.30;;;;;;9159394;19;20027;-72
2023/10/30 01:46:46;;;;;;;9.98;1.50;;;11.80;88.30;;;;;;9156796;19;20046;-72
2023/10/30 01:49:55;;;;;;;8.23;1.67;;;11.90;86.90;;;;;;9158315;19;20057;-72
2023/10/30 01:53:01;;;;;;;10.98;2.05;;;11.80;86.50;;;;;;9156443;19;20014;-72
2023/10/30 01:56:09;;;;;;;13.15;1.80;;;11.70;86.40;;;;;;9156682;19;20090;-72
2023/10/30 01:59:17;;;;;;;11.23;1.90;;;11.80;86.30;;;;;;9159337;19;20046;-72
2023/10/30 02:02:30;;;;;;;14.65;1.45;;;11.80;86.50;;;;;;9156213;19;20015;-72
2023/10/30 02:05:39;;;;;;;16.75;1.90;;;11.80;86.50;;;;;;9156908;19;20022;-74
2023/10/30 02:08:47;;;;;;;16.77;3.67;;;11.80;87.00;;;;;;9157861;19;20574;-72
2023/10/30 02:11:57;;;;;;;11.95;1.67;;;11.80;86.40;;;;;;9154508;19;20015;-72
2023/10/30 02:15:08;;;;;;;9.30;1.73;;;11.90;86.70;;;;;;9156982;19;20467;-72
2023/10/30 02:18:14;;;;;;;12.88;1.88;;;11.80;86.40;;;;;;9158416;19;20075;-72
2023/10/30 02:21:23;;;;;;;11.23;2.08;;;11.90;87.30;;;;;;9162975;19;20401;-72
2023/10/30 02:24:29;;;;;;;10.25;1.80;;;11.80;86.40;;;;;;9167297;19;20014;-71
2023/10/30 02:27:39;;;;;;;13.75;2.65;;;11.90;86.40;;;;;;9166151;19;20015;-73
2023/10/30 02:30:44;;;;;;;13.38;2.10;;;11.90;86.70;;;;;;9159407;19;20130;-71
2023/10/30 02:33:52;;;;;;;15.55;1.80;;;11.90;86.50;;;;;;9162455;19;20014;-72
2023/10/30 02:36:58;;;;;;;14.02;2.28;;;11.90;86.40;;;;;;9162667;19;20010;-72
2023/10/30 02:40:06;;;;;;;9.77;1.70;;;12.00;86.50;;;;;;9163777;19;20472;-72
2023/10/30 02:43:21;;;;;;;7.10;1.98;;;12.00;86.40;;;;;;9165982;19;20019;-71
2023/10/30 02:46:29;;;;;;;14.40;1.92;;;11.90;86.40;;;;;;9163930;19;20025;-71
2023/10/30 02:49:35;;;;;;;7.80;2.10;;;11.90;86.40;;;;;;9165977;19;20031;-71
2023/10/30 02:52:43;;;;;;;6.45;1.83;;;12.00;86.50;;;;;;9163075;19;20483;-72
2023/10/30 02:55:48;;;;;;;12.30;2.17;;;12.00;86.40;;;;;;9163795;19;20575;-72
2023/10/30 02:58:59;;;;;;;14.38;2.13;;;12.00;86.40;;;;;;9164508;19;20403;-72
2023/10/30 03:02:04;;;;;;;12.02;2.17;;;11.90;86.40;;;;;;9165016;19;20025;-72
2023/10/30 03:05:12;;;;;;;13.70;1.58;;;12.00;86.40;;;;;;9165459;19;20021;-71
2023/10/30 03:08:18;;;;;;;5.57;1.58;;;12.00;86.40;;;;;;9164034;19;20055;-71
2023/10/30 03:11:25;;;;;;;11.00;1.92;;;12.00;86.40;;;;;;9167377;19;20025;-74
2023/10/30 03:14:34;;;;;;;6.32;1.15;;;12.00;86.30;;;;;;9164562;19;20491;-71
2023/10/30 03:17:41;;;;;;;13.50;2.63;;;11.90;86.30;;;;;;9162707;19;20556;-72
2023/10/30 03:20:47;;;;;;;12.85;1.80;;;12.00;86.40;;;;;;9163195;19;20018;-72
2023/10/30 03:23:54;;;;;;;13.35;2.05;;;12.00;86.40;;;;;;9162634;19;20019;-71
2023/10/30 03:27:00;;;;;;;13.57;2.42;;;12.00;86.40;;;;;;9163469;19;20019;-72
2023/10/30 03:30:15;;;;;;;12.43;2.38;;;12.00;86.40;;;;;;9157275;19;20044;-71
2023/10/30 03:33:22;;;;;;;9.27;1.27;;;12.00;86.50;;;;;;9162658;19;20498;-71
2023/10/30 03:36:29;;;;;;;16.05;1.58;;;12.00;86.40;;;;;;9162555;19;20022;-73
2023/10/30 03:39:35;;;;;;;15.35;2.28;;;12.00;86.50;;;;;;9163178;19;20018;-71
2023/10/30 03:42:43;;;;;;;14.75;1.88;;;12.00;86.40;;;;;;9164414;19;20025;-72
2023/10/30 03:45:51;;;;;;;7.40;1.77;;;12.00;86.40;;;;;;9162266;19;20011;-72
2023/10/30 03:48:59;;;;;;;11.13;2.17;;;12.00;86.50;;;;;;9160300;19;20236;-72
2023/10/30 03:52:05;;;;;;;9.18;1.58;;;12.00;86.50;;;;;;9163450;19;20006;-73
2023/10/30 03:55:12;;;;;;;9.40;1.55;;;12.00;86.50;;;;;;9161267;19;20054;-72
2023/10/30 03:58:18;;;;;;;13.57;2.17;;;12.00;86.60;;;;;;9162820;19;20423;-73
2023/10/30 04:01:29;;;;;;;6.38;2.03;;;12.00;86.50;;;;;;9162809;19;20029;-71
2023/10/30 04:04:34;;;;;;;8.10;1.67;;;12.00;86.60;;;;;;9160081;19;20040;-71
2023/10/30 04:07:42;;;;;;;8.73;2.22;;;12.00;86.60;;;;;;9163907;19;20330;-71
2023/10/30 04:10:47;;;;;;;14.52;2.10;;;12.00;86.60;;;;;;9162870;19;20026;-71
2023/10/30 04:13:55;;;;;;;7.25;1.73;;;12.00;86.60;;;;;;9161619;19;20340;-71
2023/10/30 04:17:04;;;;;;;16.02;1.95;;;12.00;87.40;;;;;;9161268;19;20798;-72
2023/10/30 04:20:12;;;;;;;8.63;1.63;;;12.00;86.80;;;;;;9161784;19;20052;-72
2023/10/30 04:23:17;;;;;;;8.43;1.77;;;12.00;86.70;;;;;;9161995;19;20372;-72
2023/10/30 04:26:25;;;;;;;8.75;1.58;;;12.00;87.00;;;;;;9162767;19;20239;-71
2023/10/30 04:29:31;;;;;;;19.27;1.77;;;12.00;87.50;;;;;;9158386;19;20021;-71
2023/10/30 04:32:41;;;;;;;12.77;1.70;;;12.00;87.40;;;;;;9160821;19;20019;-73
2023/10/30 04:35:46;;;;;;;7.15;1.52;;;12.10;87.40;;;;;;9159321;19;20534;-71
2023/10/30 04:38:53;;;;;;;7.25;1.40;;;12.00;86.70;;;;;;9160316;19;20018;-72
2023/10/30 04:41:59;;;;;;;7.57;1.73;;;12.00;86.70;;;;;;9161016;19;20022;-71
2023/10/30 04:45:07;;;;;;;13.57;1.70;;;12.00;86.80;;;;;;9161439;19;20022;-72
2023/10/30 04:48:15;;;;;;;8.35;1.70;;;12.00;86.90;;;;;;9160153;19;20014;-71
2023/10/30 04:51:25;;;;;;;9.98;1.77;;;12.00;87.20;;;;;;9162138;19;20033;-72
2023/10/30 04:54:30;;;;;;;9.05;1.42;;;12.00;88.20;;;;;;9158960;19;20282;-72
2023/10/30 04:57:38;;;;;;;9.18;1.50;;;12.00;87.10;;;;;;9157591;19;20014;-72
2023/10/30 05:00:44;;;;;;;8.32;1.85;;;12.00;88.00;;;;;;9161024;19;20033;-72
2023/10/30 05:03:54;;;;;;;13.48;1.90;;;11.90;87.30;;;;;;9158489;19;20014;-72
2023/10/30 05:06:59;;;;;;;7.72;1.77;;;11.90;86.70;;;;;;9159441;19;20015;-73
2023/10/30 05:10:08;;;;;;;17.08;2.08;;;11.90;86.70;;;;;;9157320;19;20347;-72
2023/10/30 05:13:13;;;;;;;25.48;2.75;;;11.90;86.70;;;;;;9158886;19;20513;-72
2023/10/30 05:16:21;;;;;;;18.00;1.70;;;11.90;86.70;;;;;;9159166;19;20482;-71
2023/10/30 05:19:29;;;;;;;14.43;1.77;;;11.90;86.80;;;;;;9159539;19;20093;-72
2023/10/30 05:22:36;;;;;;;9.45;1.38;;;11.80;86.70;;;;;;9159246;19;20052;-72
2023/10/30 05:25:42;;;;;;;10.73;1.77;;;11.90;87.40;;;;;;9158411;19;20506;-72
2023/10/30 05:28:50;;;;;;;10.18;1.38;;;11.90;86.80;;;;;;9158098;19;20493;-72
2023/10/30 05:31:55;;;;;;;10.02;2.88;;;11.80;87.40;;;;;;9155542;19;20018;-72
2023/10/30 05:35:06;;;;;;;10.93;1.67;;;11.80;86.80;;;;;;9157206;19;20021;-72
2023/10/30 05:38:14;;;;;;;8.35;2.22;;;11.80;86.90;;;;;;9159183;19;20015;-71
2023/10/30 05:41:21;;;;;;;13.30;1.67;;;11.80;86.90;;;;;;9159567;19;20054;-73
2023/10/30 05:44:27;;;;;;;10.68;2.03;;;11.70;86.90;;;;;;9161807;19;20025;-73
2023/10/30 05:47:34;;;;;;;10.02;2.00;;;11.70;86.90;;;;;;9159696;19;20024;-72
2023/10/30 05:50:42;;;;;;;11.40;1.20;;;11.70;87.00;;;;;;9159176;19;20019;-72
2023/10/30 05:53:50;;;;;;;9.43;1.55;;;11.90;88.80;;;;;;9165059;19;20030;-72
2023/10/30 05:56:56;;;;;;;5.72;1.52;;;12.00;89.00;;;;;;9165423;19;20018;-72
2023/10/30 06:00:05;;;;;;;9.57;1.95;;;11.80;89.40;;;;;;9168879;19;20495;-73
2023/10/30 06:03:13;;;;;;;14.57;2.60;;;11.70;87.20;;;;;;9168684;19;20027;-73
2023/10/30 06:06:23;;;;;;;8.65;2.25;;;11.70;87.30;;;;;;9166387;19;20013;-72
2023/10/30 06:09:30;;;;;;;16.33;3.05;;;11.70;87.20;;;;;;9170999;19;20441;-71
2023/10/30 06:12:37;;;;;;;11.70;3.10;;;11.60;87.00;;;;;;9170913;19;20013;-71
2023/10/30 06:15:43;;;;;;;11.88;1.65;;;11.70;87.30;;;;;;9164595;19;20018;-71
2023/10/30 06:18:50;;;;;;;22.05;3.17;;;11.80;90.00;;;;;;9169993;19;20484;-72
2023/10/30 06:21:58;;;;;;;10.63;2.05;;;11.60;87.00;;;;;;9170807;19;20022;-71
2023/10/30 06:25:07;;;;;;;14.85;2.22;;;11.60;87.00;;;;;;9167662;19;20014;-73
2023/10/30 06:28:15;;;;;;;12.82;2.15;;;11.60;87.00;;;;;;9169398;19;20041;-73
2023/10/30 06:31:22;;;;;;;17.13;2.75;;;11.60;87.00;;;;;;9165652;19;20385;-73
2023/10/30 06:34:27;;;;;;;9.90;2.35;;;11.60;87.10;;;;;;9169471;19;20018;-72
2023/10/30 06:37:38;;;;;;;10.45;2.00;;;11.50;87.00;;;;;;9167536;19;20022;-73
2023/10/30 06:40:43;;;;;;;12.48;1.65;;;11.50;87.10;;;;;;9168577;19;20015;-73
2023/10/30 06:43:51;;;;;;;8.38;1.38;;;11.50;87.10;;;;;;9168169;19;20021;-73
2023/10/30 06:46:58;;;;;;;13.13;2.67;;;11.50;87.20;;;;;;9165973;19;20118;-73
2023/10/30 06:50:05;;;;;;;10.73;1.80;;;11.50;87.20;;;;;;9166878;19;20014;-73
2023/10/30 06:53:13;;;;;;;9.20;2.00;;;11.50;87.10;;;;;;9168182;19;20279;-73
2023/10/30 06:56:20;;;;;;;16.42;2.50;;;11.50;87.20;;;;;;9163017;19;20014;-72
2023/10/30 06:59:27;;;;;;;12.23;1.77;;;11.50;87.10;;;;;;9167565;19;20014;-74
2023/10/30 07:02:34;;;;;;;13.77;2.15;;;11.40;87.10;;;;;;9164215;19;20365;-74
2023/10/30 07:05:40;;;;;;;18.98;2.80;;;11.40;87.10;;;;;;9165055;19;20007;-73
2023/10/30 07:08:50;;;;;;;7.93;1.70;;;11.40;87.10;;;;;;9164518;19;20018;-73
2023/10/30 07:11:55;;;;;;;15.88;2.78;;;11.40;87.20;;;;;;9162120;19;20019;-73
2023/10/30 07:15:03;;;;;;;13.75;1.73;;;11.50;87.40;;;;;;9164445;19;20026;-73
2023/10/30 07:18:09;;;;;;;24.42;2.05;;;11.40;87.20;;;;;;9164295;19;20110;-74
2023/10/30 07:21:16;;;;;;;10.23;2.30;;;11.30;87.20;;;;;;9165477;19;20021;-74
2023/10/30 07:24:24;;;;;;;11.10;2.00;;;11.40;87.30;;;;;;9165184;19;20022;-73
2023/10/30 07:27:32;;;;;;;6.05;2.25;;;11.40;87.40;;;;;;9165443;19;20022;-73
2023/10/30 07:30:37;;;;;;;12.32;2.15;;;11.50;87.40;;;;;;9157449;19;20035;-75
2023/10/30 07:33:45;;;;;;;9.15;2.13;;;11.40;87.40;;;;;;9160010;19;20016;-73
2023/10/30 07:36:51;;;;;;;17.67;3.22;;;11.50;87.50;;;;;;9159467;19;20870;-73
2023/10/30 07:40:01;;;;;;;12.40;2.35;;;11.50;87.60;;;;;;9157238;19;20472;-74
2023/10/30 07:43:07;;;;;;;10.15;2.15;;;11.50;87.60;;;;;;9164141;19;20014;-72
2023/10/30 07:46:16;;;;;;;18.23;2.47;;;11.50;87.70;;;;;;9160759;19;20022;-74
2023/10/30 07:49:21;;;;;;;10.48;2.03;;;11.60;87.80;;;;;;9164729;19;20014;-76
2023/10/30 07:52:29;;;;;;;17.25;2.55;;;11.60;87.80;;;;;;9162586;19;20019;-73
2023/10/30 07:55:39;;;;;;;17.25;2.03;;;11.60;87.80;;;;;;9162400;19;20018;-75
2023/10/30 07:58:46;;;;;;;8.55;1.70;;;11.60;87.90;;;;;;9160309;19;20015;-74
2023/10/30 08:01:52;;;;;;;17.73;2.28;;;11.70;87.90;;;;;;9161135;19;20640;-74
2023/10/30 08:05:01;;;;;;;16.55;2.28;;;11.70;88.00;;;;;;9161238;19;20040;-74
2023/10/30 08:08:06;;;;;;;25.77;2.47;;;11.80;88.10;;;;;;9162181;19;20010;-72
2023/10/30 08:11:20;;;;;;;17.60;2.42;;;11.80;88.10;;;;;;9160656;19;20018;-74
2023/10/30 08:14:25;;;;;;;23.40;3.33;;;11.90;88.20;;;;;;9161983;19;20014;-74
2023/10/30 08:17:33;;;;;;;14.88;2.50;;;11.90;88.10;;;;;;9158408;19;20020;-75
2023/10/30 08:20:38;;;;;;;10.55;1.60;;;12.00;88.80;;;;;;9160575;19;20025;-77
2023/10/30 08:23:46;;;;;;;12.48;2.28;;;12.00;88.20;;;;;;9160904;19;20018;-73
2023/10/30 08:26:54;;;;;;;15.15;2.30;;;12.10;88.20;;;;;;9163590;19;20019;-75
2023/10/30 08:30:02;;;;;;;9.10;2.28;;;12.20;88.30;;;;;;9157387;19;20015;-75
2023/10/30 08:33:08;;;;;;;15.05;1.88;;;12.20;88.20;;;;;;9162730;19;20086;-76
2023/10/30 08:36:23;;;;;;;8.15;1.45;;;12.30;88.20;;;;;;9163806;19;20341;-74
2023/10/30 08:39:40;;;;;;;8.85;1.60;;;12.30;88.20;;;;;;9203327;19;20781;-73
2023/10/30 08:42:48;;;;;;;7.32;1.67;;;12.40;88.20;;;;;;9207758;19;20025;-73
2023/10/30 08:45:53;;;;;;;15.70;2.22;;;12.40;88.20;;;;;;9205823;19;20467;-74
2023/10/30 08:49:01;;;;;;;10.65;2.88;;;12.40;88.10;;;;;;9207580;19;20015;-73
2023/10/30 08:52:09;;;;;;;18.13;2.20;;;12.50;88.20;;;;;;9205930;19;20480;-74
2023/10/30 08:55:19;;;;;;;9.88;1.80;;;12.50;88.10;;;;;;9205486;19;20360;-74
2023/10/30 08:58:25;;;;;;;10.95;1.85;;;12.60;88.20;;;;;;9202718;19;20022;-73
2023/10/30 09:01:32;;;;;;;10.30;1.95;;;12.60;88.20;;;;;;9206736;19;20018;-75
2023/10/30 09:04:38;;;;;;;10.70;1.98;;;12.60;88.20;;;;;;9202666;19;20025;-74
2023/10/30 09:07:46;;;;;;;12.85;1.63;;;12.70;88.20;;;;;;9200578;19;20021;-74
2023/10/30 09:10:55;;;;;;;14.20;2.45;;;12.70;88.20;;;;;;9199998;19;20017;-75
2023/10/30 09:14:02;;;;;;;8.63;2.45;;;12.80;88.30;;;;;;9203717;19;20503;-74
2023/10/30 09:17:09;;;;;;;13.43;2.20;;;12.80;88.20;;;;;;9203320;19;20011;-74
2023/10/30 09:20:19;;;;;;;11.85;2.20;;;12.80;88.20;;;;;;9200313;19;20765;-73
2023/10/30 09:23:26;;;;;;;19.80;4.07;;;12.90;88.20;;;;;;9203423;19;20444;-74
2023/10/30 09:26:36;;;;;;;18.30;2.05;;;13.00;88.20;;;;;;9200428;19;20610;-74
2023/10/30 09:29:41;;;;;;;9.50;1.88;;;13.10;88.30;;;;;;9195122;19;20010;-74
2023/10/30 09:32:49;;;;;;;22.45;1.98;;;12.60;87.90;;;;;;9203327;19;20021;-75
2023/10/30 09:35:56;;;;;;;10.43;1.90;;;13.20;88.10;;;;;;9203067;19;20077;-74
2023/10/30 09:39:04;;;;;;;17.83;2.25;;;13.30;88.20;;;;;;9202380;19;20030;-75
2023/10/30 09:42:14;;;;;;;16.75;2.95;;;13.30;88.10;;;;;;9203960;19;20014;-75
2023/10/30 09:45:23;;;;;;;20.77;2.55;;;13.40;88.20;;;;;;9203752;19;20033;-75
2023/10/30 09:48:29;;;;;;;24.48;2.70;;;13.40;88.10;;;;;;9197690;19;20018;-75
2023/10/30 09:51:38;;;;;;;12.23;2.22;;;13.50;88.10;;;;;;9166172;19;20019;-74
2023/10/30 09:54:44;;;;;;;12.27;1.70;;;13.60;88.10;;;;;;9165509;19;21085;-75
2023/10/30 09:57:55;;;;;;;11.23;1.35;;;13.70;88.60;;;;;;9163985;19;20007;-75
2023/10/30 10:01:01;;;;;;;12.25;2.42;;;13.80;88.00;;;;;;9163214;19;20026;-75
2023/10/30 10:04:09;;;;;;;16.35;3.20;;;13.90;88.10;;;;;;9166564;19;20434;-75
2023/10/30 10:07:15;;;;;;;23.85;2.88;;;14.00;88.00;;;;;;9163208;19;20766;-74
2023/10/30 10:10:22;;;;;;;8.85;2.10;;;14.10;88.00;;;;;;9166593;19;20030;-74
2023/10/30 10:13:33;;;;;;;11.48;2.20;;;14.20;87.90;;;;;;9162646;19;20018;-74
2023/10/30 10:16:41;;;;;;;11.20;1.80;;;14.40;87.80;;;;;;9165603;19;20022;-75
2023/10/30 10:19:48;;;;;;;10.63;1.80;;;14.50;87.80;;;;;;9161694;19;20052;-74
2023/10/30 10:22:56;;;;;;;14.13;2.00;;;14.60;87.60;;;;;;9168367;19;20373;-74
2023/10/30 10:26:03;;;;;;;7.32;1.70;;;14.70;87.50;;;;;;9167419;19;20029;-75
2023/10/30 10:29:13;;;;;;;12.43;2.25;;;14.80;87.50;;;;;;9165872;19;20058;-74
2023/10/30 10:32:19;;;;;;;13.85;2.08;;;14.90;87.20;;;;;;9163864;19;20586;-73
2023/10/30 10:35:26;;;;;;;17.20;2.55;;;15.00;87.10;;;;;;9162316;19;20028;-72
2023/10/30 10:38:32;;;;;;;8.60;2.20;;;15.00;86.90;;;;;;9163438;19;20021;-72
2023/10/30 10:41:42;;;;;;;11.90;1.83;;;15.10;86.80;;;;;;9162019;19;20018;-72
2023/10/30 10:44:51;;;;;;;14.55;2.28;;;15.20;86.80;;;;;;9164702;19;20037;-72
2023/10/30 10:47:59;;;;;;;10.45;2.85;;;15.20;86.60;;;;;;9165734;19;20884;-72
2023/10/30 10:51:05;;;;;;;11.55;2.97;;;15.20;86.60;;;;;;9162623;19;20037;-71
2023/10/30 10:54:23;;;;;;;20.05;2.30;;;15.30;86.40;;;;;;9164427;19;20020;-72
2023/10/30 10:57:32;;;;;;;18.85;2.28;;;15.30;86.30;;;;;;9162592;19;20018;-72
2023/10/30 11:00:47;;;;;;;14.90;2.03;;;15.40;86.80;;;;;;9159140;19;20018;-72
2023/10/30 11:03:54;;;;;;;9.52;2.20;;;15.40;86.00;;;;;;9164188;19;20475;-72
2023/10/30 11:07:07;;;;;;;10.93;1.95;;;15.40;86.00;;;;;;9164145;19;20010;-72
2023/10/30 11:10:23;;;;;;;12.18;1.73;;;15.50;86.00;;;;;;9162509;19;20018;-72
2023/10/30 11:13:36;;;;;;;11.30;1.83;;;15.50;85.80;;;;;;9162636;19;20015;-73
2023/10/30 11:16:51;;;;;;;14.93;1.60;;;15.50;85.70;;;;;;9161055;19;20045;-72
2023/10/30 11:20:05;;;;;;;8.20;2.05;;;15.50;85.60;;;;;;9161436;19;20022;-73
2023/10/30 11:23:12;;;;;;;15.25;2.75;;;15.50;85.50;;;;;;9160256;19;20017;-72
2023/10/30 11:26:39;;;;;;;11.38;2.13;;;15.50;85.60;;;;;;9163350;19;20022;-72
2023/10/30 11:29:58;;;;;;;15.27;2.60;;;15.50;85.40;;;;;;9158705;19;20014;-72
2023/10/30 11:33:20;;;;;;;12.52;2.63;;;15.60;85.50;;;;;;9160173;19;20023;-72
2023/10/30 11:36:26;;;;;;;21.92;2.05;;;15.50;85.40;;;;;;9162952;19;20010;-72
2023/10/30 11:39:39;;;;;;;10.48;2.20;;;15.60;85.60;;;;;;9161057;19;20018;-72
2023/10/30 11:42:45;;;;;;;9.45;2.33;;;15.60;85.50;;;;;;9160063;19;20512;-72
2023/10/30 11:46:04;;;;;;;15.32;2.72;;;15.60;85.40;;;;;;9162903;19;20010;-71
2023/10/30 11:49:14;;;;;;;9.95;1.75;;;15.70;85.30;;;;;;9162453;19;20018;-71
2023/10/30 11:52:22;;;;;;;9.90;1.95;;;15.70;85.30;;;;;;9159338;19;20018;-71
2023/10/30 11:55:30;;;;;;;10.20;1.75;;;15.70;85.30;;;;;;9163322;19;20132;-72
2023/10/30 11:58:38;;;;;;;12.73;1.90;;;15.70;85.30;;;;;;9161739;19;20014;-71
2023/10/30 12:01:46;;;;;;;18.38;2.50;;;15.70;85.20;;;;;;9161613;19;20010;-71
2023/10/30 12:04:56;;;;;;;7.35;1.63;;;15.80;85.20;;;;;;9162272;19;20476;-73
2023/10/30 12:08:03;;;;;;;13.20;2.03;;;15.80;86.30;;;;;;9162139;19;20365;-72
2023/10/30 12:11:10;;;;;;;9.10;1.77;;;15.80;85.00;;;;;;9161058;19;20018;-71
2023/10/30 12:14:18;;;;;;;10.82;2.35;;;15.90;85.00;;;;;;9162521;19;20029;-72
2023/10/30 12:17:26;;;;;;;15.82;1.90;;;15.90;84.90;;;;;;9164268;19;20029;-72
2023/10/30 12:20:34;;;;;;;13.55;2.10;;;15.90;85.00;;;;;;9160547;19;20376;-72
2023/10/30 12:23:49;;;;;;;8.77;1.35;;;16.00;84.90;;;;;;9162447;19;20014;-72
2023/10/30 12:26:54;;;;;;;13.70;1.73;;;16.00;84.80;;;;;;9164046;19;20423;-72
2023/10/30 12:30:12;;;;;;;7.10;2.13;;;16.10;84.80;;;;;;9158486;19;20011;-72
2023/10/30 12:33:23;;;;;;;17.88;2.42;;;16.10;84.80;;;;;;9161886;19;20053;-72
2023/10/30 12:36:37;;;;;;;15.95;2.70;;;16.30;92.20;;;;;;9163134;19;20634;-71
2023/10/30 12:39:42;;;;;;;10.63;2.50;;;16.20;93.00;;;;;;9161797;19;20038;-71
2023/10/30 12:42:52;;;;;;;8.45;1.70;;;16.30;92.60;;;;;;9162835;19;20017;-71
2023/10/30 12:45:58;;;;;;;5.28;1.67;;;16.10;84.40;;;;;;9162831;19;20015;-72
2023/10/30 12:49:05;;;;;;;7.60;1.50;;;16.10;84.30;;;;;;9162542;19;20022;-71
2023/10/30 12:52:13;;;;;;;9.60;2.95;;;16.10;84.30;;;;;;9162160;19;20102;-71
2023/10/30 12:55:21;;;;;;;8.93;1.70;;;16.10;84.20;;;;;;9162481;19;20019;-72
2023/10/30 12:58:27;;;;;;;12.77;2.15;;;16.10;84.10;;;;;;9160074;19;20019;-71
2023/10/30 13:01:35;;;;;;;9.82;1.27;;;16.10;84.00;;;;;;9159558;19;20006;-71
2023/10/30 13:05:00;;;;;;;11.63;1.75;;;16.10;84.10;;;;;;9162596;19;20045;-71
2023/10/30 13:08:11;;;;;;;5.03;1.30;;;16.00;83.90;;;;;;9162590;19;20033;-73
2023/10/30 13:11:16;;;;;;;9.32;1.48;;;16.00;83.80;;;;;;9163290;19;20046;-72
2023/10/30 13:14:24;;;;;;;7.50;1.50;;;16.00;83.80;;;;;;9161827;19;20728;-72
2023/10/30 13:17:29;;;;;;;11.15;1.45;;;16.00;83.80;;;;;;9162007;19;20131;-72
2023/10/30 13:20:37;;;;;;;11.20;2.22;;;16.00;83.80;;;;;;9161013;19;20583;-71
2023/10/30 13:23:45;;;;;;;7.63;1.63;;;15.90;83.80;;;;;;9161140;19;20950;-71
2023/10/30 13:26:53;;;;;;;6.03;1.27;;;16.00;83.80;;;;;;9170458;19;20014;-72
2023/10/30 13:29:58;;;;;;;8.15;1.80;;;16.00;84.40;;;;;;9166046;19;20505;-72
2023/10/30 13:33:09;;;;;;;10.95;2.17;;;16.00;83.80;;;;;;9169205;19;20010;-72
2023/10/30 13:36:15;;;;;;;9.50;1.70;;;16.00;83.70;;;;;;9167988;19;20094;-72
2023/10/30 13:39:25;;;;;;;11.65;2.00;;;16.00;83.70;;;;;;9170021;19;20022;-71
2023/10/30 13:42:30;;;;;;;14.13;2.25;;;16.10;83.80;;;;;;9170549;19;20018;-71
2023/10/30 13:45:38;;;;;;;9.70;1.38;;;16.10;84.00;;;;;;9168620;19;20716;-71
2023/10/30 13:48:43;;;;;;;11.88;1.58;;;16.00;83.60;;;;;;9168829;19;20014;-71
2023/10/30 13:51:51;;;;;;;8.15;2.03;;;16.10;83.70;;;;;;9168107;19;20025;-73
2023/10/30 13:54:59;;;;;;;16.25;3.53;;;16.10;83.60;;;;;;9168535;19;20070;-71
2023/10/30 13:58:06;;;;;;;6.93;1.65;;;16.10;83.50;;;;;;9169783;19;20025;-71
2023/10/30 14:01:12;;;;;;;13.57;2.30;;;16.00;83.50;;;;;;9167331;19;20427;-72
2023/10/30 14:04:20;;;;;;;15.77;3.15;;;16.10;83.40;;;;;;9168820;19;20014;-72
2023/10/30 14:07:25;;;;;;;12.95;1.90;;;16.10;83.50;;;;;;9166637;19;20022;-72
2023/10/30 14:10:35;;;;;;;4.18;1.63;;;16.00;83.40;;;;;;9166699;19;20569;-73
2023/10/30 14:13:41;;;;;;;9.18;1.90;;;16.10;83.40;;;;;;9166869;19;20013;-72
2023/10/30 14:16:51;;;;;;;6.80;1.48;;;16.00;83.40;;;;;;9165638;19;20033;-72
2023/10/30 14:19:56;;;;;;;5.20;1.95;;;16.00;83.40;;;;;;9168559;19;20022;-71
2023/10/30 14:23:04;;;;;;;6.63;1.60;;;16.00;83.40;;;;;;9168420;19;20026;-71
2023/10/30 14:26:12;;;;;;;12.88;1.52;;;16.10;83.50;;;;;;9167257;19;20039;-72
2023/10/30 14:29:19;;;;;;;8.60;1.45;;;16.00;83.50;;;;;;9160332;19;20546;-72
2023/10/30 14:32:25;;;;;;;5.78;1.40;;;16.00;83.70;;;;;;9161799;19;20022;-71
2023/10/30 14:35:32;;;;;;;12.30;2.00;;;16.00;83.90;;;;;;9165819;19;20372;-71
2023/10/30 14:38:37;;;;;;;7.88;1.50;;;16.00;83.50;;;;;;9167450;19;20007;-72
2023/10/30 14:41:47;;;;;;;10.18;2.05;;;16.00;83.60;;;;;;9164665;19;20022;-72
2023/10/30 14:44:53;;;;;;;9.35;2.05;;;16.00;83.50;;;;;;9167611;19;20022;-72
2023/10/30 14:48:01;;;;;;;11.30;2.30;;;15.90;83.30;;;;;;9168138;19;20018;-72
2023/10/30 14:51:07;;;;;;;8.25;2.30;;;15.90;83.40;;;;;;9165255;19;20021;-72
2023/10/30 14:54:14;;;;;;;10.05;1.95;;;15.90;83.40;;;;;;9165989;19;20029;-72
2023/10/30 14:57:24;;;;;;;5.65;1.50;;;15.90;83.40;;;;;;9167941;19;20031;-73
2023/10/30 15:00:31;;;;;;;7.72;1.60;;;15.90;84.00;;;;;;9167076;19;20028;-72
2023/10/30 15:03:37;;;;;;;5.53;1.40;;;15.90;83.40;;;;;;9167264;19;20015;-71
2023/10/30 15:06:44;;;;;;;6.35;1.60;;;15.90;83.50;;;;;;9167404;19;20026;-71
2023/10/30 15:09:50;;;;;;;5.95;1.52;;;15.90;83.50;;;;;;9167103;19;20014;-71
2023/10/30 15:13:00;;;;;;;7.57;1.50;;;15.90;83.60;;;;;;9165229;19;20014;-71
2023/10/30 15:16:06;;;;;;;10.32;2.55;;;15.90;83.60;;;;;;9166242;19;20044;-72
2023/10/30 15:19:14;;;;;;;7.90;1.90;;;15.90;83.60;;;;;;9164152;19;20049;-72
2023/10/30 15:22:19;;;;;;;6.63;1.65;;;15.80;83.50;;;;;;9164898;19;20029;-71
2023/10/30 15:25:27;;;;;;;6.75;1.40;;;15.80;83.60;;;;;;9165951;19;20014;-71
2023/10/30 15:28:35;;;;;;;7.00;2.13;;;15.80;83.60;;;;;;9163680;19;20491;-71
2023/10/30 15:31:42;;;;;;;13.77;2.58;;;15.80;83.60;;;;;;9159883;19;20034;-72
2023/10/30 15:34:48;;;;;;;9.65;2.55;;;;;;;;;;9166784;19;20917;-72
2023/10/30 15:37:56;;;;;;;9.80;2.30;;;15.90;83.90;;;;;;9164610;19;20286;-72
2023/10/30 15:41:02;;;;;;;8.27;2.45;;;15.90;85.00;;;;;;9164006;19;20835;-73
2023/10/30 15:44:12;;;;;;;8.90;2.15;;;15.90;86.50;;;;;;9165714;19;20385;-72
2023/10/30 15:47:17;;;;;;;6.45;1.92;;;15.80;84.60;;;;;;9162337;19;20025;-72
2023/10/30 15:50:31;;;;;;;10.02;2.03;;;15.70;85.20;;;;;;9163059;19;20014;-72
2023/10/30 15:53:36;;;;;;;9.32;1.90;;;15.70;86.70;;;;;;9162871;19;20361;-72
2023/10/30 15:57:04;;;;;;;5.97;1.95;;;15.80;84.40;;;;;;9162520;19;20014;-71
2023/10/30 16:00:13;;;;;;;7.68;1.50;;;15.60;83.60;;;;;;9164493;19;20010;-71
2023/10/30 16:03:20;;;;;;;7.22;2.13;;;15.60;83.60;;;;;;9162641;19;20015;-71
2023/10/30 16:06:30;;;;;;;3.78;1.50;;;15.60;83.60;;;;;;9163718;19;20041;-71
2023/10/30 16:09:37;;;;;;;9.82;2.50;;;15.60;83.70;;;;;;9163961;19;20022;-73